sensor_id;sensor_type;location;lat;lon;timestamp;P1;durP1;ratioP1;P2;durP2;ratioP2
3714;SDS011;1873;49.988;8.674;2022-07-06T00:26:24;5.00;;;4.50;;
3714;SDS011;1873;49.988;8.674;2022-07-06T04:10:13;3.63;;;2.60;;
3714;SDS011;1873;49.988;8.674;2022-07-06T04:28:54;2.77;;;2.23;;
3714;SDS011;1873;49.988;8.674;2022-07-06T06:42:40;8.57;;;4.20;;
3714;SDS011;1873;49.988;8.674;2022-07-06T06:56:58;5.03;;;4.53;;
3714;SDS011;1873;49.988;8.674;2022-07-06T06:59:52;4.17;;;3.77;;
3714;SDS011;1873;49.988;8.674;2022-07-06T07:02:20;4.37;;;3.97;;
3714;SDS011;1873;49.988;8.674;2022-07-06T07:04:49;9.37;;;4.87;;
3714;SDS011;1873;49.988;8.674;2022-07-06T07:15:30;5.67;;;4.37;;
3714;SDS011;1873;49.988;8.674;2022-07-06T07:17:59;6.87;;;3.83;;
3714;SDS011;1873;49.988;8.674;2022-07-06T07:20:28;11.63;;;5.30;;
3714;SDS011;1873;49.988;8.674;2022-07-06T07:22:57;5.30;;;4.33;;
3714;SDS011;1873;49.988;8.674;2022-07-06T07:25:28;4.90;;;4.40;;
3714;SDS011;1873;49.988;8.674;2022-07-06T07:27:58;6.53;;;4.10;;
3714;SDS011;1873;49.988;8.674;2022-07-06T07:30:27;6.00;;;4.50;;
3714;SDS011;1873;49.988;8.674;2022-07-06T07:32:59;6.10;;;4.20;;
3714;SDS011;1873;49.988;8.674;2022-07-06T07:35:28;4.97;;;4.47;;
3714;SDS011;1873;49.988;8.674;2022-07-06T07:37:58;7.97;;;4.60;;
3714;SDS011;1873;49.988;8.674;2022-07-06T07:40:41;18.10;;;14.53;;
3714;SDS011;1873;49.988;8.674;2022-07-06T07:43:12;8.97;;;5.17;;
3714;SDS011;1873;49.988;8.674;2022-07-06T07:45:43;6.43;;;4.80;;
3714;SDS011;1873;49.988;8.674;2022-07-06T07:48:12;8.13;;;4.50;;
3714;SDS011;1873;49.988;8.674;2022-07-06T07:50:44;8.57;;;5.00;;
3714;SDS011;1873;49.988;8.674;2022-07-06T07:53:18;5.67;;;4.17;;
3714;SDS011;1873;49.988;8.674;2022-07-06T07:55:50;7.53;;;4.60;;
3714;SDS011;1873;49.988;8.674;2022-07-06T08:01:34;6.00;;;4.80;;
3714;SDS011;1873;49.988;8.674;2022-07-06T08:04:04;5.03;;;4.53;;
3714;SDS011;1873;49.988;8.674;2022-07-06T08:06:34;5.40;;;4.50;;
3714;SDS011;1873;49.988;8.674;2022-07-06T08:09:04;10.77;;;4.90;;
3714;SDS011;1873;49.988;8.674;2022-07-06T08:11:39;12.93;;;5.57;;
3714;SDS011;1873;49.988;8.674;2022-07-06T08:14:21;8.17;;;5.60;;
3714;SDS011;1873;49.988;8.674;2022-07-06T08:16:53;5.70;;;5.13;;
3714;SDS011;1873;49.988;8.674;2022-07-06T08:19:24;8.63;;;4.60;;
3714;SDS011;1873;49.988;8.674;2022-07-06T08:25:09;5.63;;;4.90;;
3714;SDS011;1873;49.988;8.674;2022-07-06T08:27:39;8.30;;;5.87;;
3714;SDS011;1873;49.988;8.674;2022-07-06T08:30:12;11.27;;;5.40;;
3714;SDS011;1873;49.988;8.674;2022-07-06T08:32:48;7.60;;;5.33;;
3714;SDS011;1873;49.988;8.674;2022-07-06T08:35:38;6.83;;;5.30;;
3714;SDS011;1873;49.988;8.674;2022-07-06T08:38:16;7.57;;;4.87;;
3714;SDS011;1873;49.988;8.674;2022-07-06T08:40:48;11.40;;;4.60;;
3714;SDS011;1873;49.988;8.674;2022-07-06T08:43:50;6.20;;;5.37;;
3714;SDS011;1873;49.988;8.674;2022-07-06T08:46:44;7.50;;;5.50;;
3714;SDS011;1873;49.988;8.674;2022-07-06T08:49:17;10.63;;;5.30;;
3714;SDS011;1873;49.988;8.674;2022-07-06T08:52:03;8.10;;;5.20;;
3714;SDS011;1873;49.988;8.674;2022-07-06T08:54:40;6.73;;;4.60;;
3714;SDS011;1873;49.988;8.674;2022-07-06T09:01:00;7.03;;;4.30;;
3714;SDS011;1873;49.988;8.674;2022-07-06T09:04:02;7.70;;;5.53;;
3714;SDS011;1873;49.988;8.674;2022-07-06T09:06:34;9.13;;;4.60;;
3714;SDS011;1873;49.988;8.674;2022-07-06T09:09:06;6.07;;;4.70;;
3714;SDS011;1873;49.988;8.674;2022-07-06T09:11:54;4.90;;;4.40;;
3714;SDS011;1873;49.988;8.674;2022-07-06T09:14:43;6.10;;;4.50;;
3714;SDS011;1873;49.988;8.674;2022-07-06T09:18:02;8.33;;;4.90;;
3714;SDS011;1873;49.988;8.674;2022-07-06T09:21:12;5.60;;;5.10;;
3714;SDS011;1873;49.988;8.674;2022-07-06T09:23:54;6.70;;;4.40;;
3714;SDS011;1873;49.988;8.674;2022-07-06T09:26:23;7.20;;;4.90;;
3714;SDS011;1873;49.988;8.674;2022-07-06T09:28:56;7.20;;;4.30;;
3714;SDS011;1873;49.988;8.674;2022-07-06T09:31:26;4.70;;;4.20;;
3714;SDS011;1873;49.988;8.674;2022-07-06T09:33:57;7.53;;;4.70;;
3714;SDS011;1873;49.988;8.674;2022-07-06T09:36:38;5.73;;;4.00;;
3714;SDS011;1873;49.988;8.674;2022-07-06T09:39:16;4.57;;;4.17;;
3714;SDS011;1873;49.988;8.674;2022-07-06T09:41:47;5.57;;;4.50;;
3714;SDS011;1873;49.988;8.674;2022-07-06T09:44:23;6.23;;;5.07;;
3714;SDS011;1873;49.988;8.674;2022-07-06T09:46:53;5.83;;;4.07;;
3714;SDS011;1873;49.988;8.674;2022-07-06T09:49:45;5.10;;;4.60;;
3714;SDS011;1873;49.988;8.674;2022-07-06T09:52:15;7.10;;;4.80;;
3714;SDS011;1873;49.988;8.674;2022-07-06T09:54:48;4.20;;;3.43;;
3714;SDS011;1873;49.988;8.674;2022-07-06T09:57:17;4.43;;;4.00;;
3714;SDS011;1873;49.988;8.674;2022-07-06T10:00:06;4.00;;;3.60;;
3714;SDS011;1873;49.988;8.674;2022-07-06T10:02:43;6.20;;;3.57;;
3714;SDS011;1873;49.988;8.674;2022-07-06T10:05:21;5.03;;;4.50;;
3714;SDS011;1873;49.988;8.674;2022-07-06T10:07:56;3.70;;;3.37;;
3714;SDS011;1873;49.988;8.674;2022-07-06T10:10:33;5.50;;;3.07;;
3714;SDS011;1873;49.988;8.674;2022-07-06T10:13:15;6.70;;;3.20;;
3714;SDS011;1873;49.988;8.674;2022-07-06T10:19:22;3.90;;;3.13;;
3714;SDS011;1873;49.988;8.674;2022-07-06T10:24:47;3.23;;;2.70;;
3714;SDS011;1873;49.988;8.674;2022-07-06T10:27:20;14.27;;;9.17;;
3714;SDS011;1873;49.988;8.674;2022-07-06T10:29:51;4.40;;;3.37;;
3714;SDS011;1873;49.988;8.674;2022-07-06T10:32:20;4.00;;;2.70;;
3714;SDS011;1873;49.988;8.674;2022-07-06T10:34:52;3.73;;;2.70;;
3714;SDS011;1873;49.988;8.674;2022-07-06T10:37:23;3.57;;;2.40;;
3714;SDS011;1873;49.988;8.674;2022-07-06T10:39:52;4.03;;;2.80;;
3714;SDS011;1873;49.988;8.674;2022-07-06T10:42:45;3.30;;;2.33;;
3714;SDS011;1873;49.988;8.674;2022-07-06T10:45:19;4.70;;;2.27;;
3714;SDS011;1873;49.988;8.674;2022-07-06T10:48:18;5.20;;;2.60;;
3714;SDS011;1873;49.988;8.674;2022-07-06T10:50:52;4.07;;;2.80;;
3714;SDS011;1873;49.988;8.674;2022-07-06T10:53:23;3.40;;;2.43;;
3714;SDS011;1873;49.988;8.674;2022-07-06T10:55:54;5.30;;;3.30;;
3714;SDS011;1873;49.988;8.674;2022-07-06T11:01:19;5.27;;;2.90;;
3714;SDS011;1873;49.988;8.674;2022-07-06T11:04:04;4.33;;;2.57;;
3714;SDS011;1873;49.988;8.674;2022-07-06T11:06:36;4.30;;;2.77;;
3714;SDS011;1873;49.988;8.674;2022-07-06T11:09:06;4.60;;;2.50;;
3714;SDS011;1873;49.988;8.674;2022-07-06T11:11:45;4.10;;;2.58;;
3714;SDS011;1873;49.988;8.674;2022-07-06T11:14:20;3.20;;;2.43;;
3714;SDS011;1873;49.988;8.674;2022-07-06T11:16:59;7.00;;;2.67;;
3714;SDS011;1873;49.988;8.674;2022-07-06T11:19:32;2.60;;;2.30;;
3714;SDS011;1873;49.988;8.674;2022-07-06T11:22:05;3.10;;;2.80;;
3714;SDS011;1873;49.988;8.674;2022-07-06T11:24:36;5.17;;;2.57;;
3714;SDS011;1873;49.988;8.674;2022-07-06T11:27:06;4.40;;;3.03;;
3714;SDS011;1873;49.988;8.674;2022-07-06T12:49:25;2.53;;;2.17;;
3714;SDS011;1873;49.988;8.674;2022-07-06T12:51:58;3.43;;;1.90;;
3714;SDS011;1873;49.988;8.674;2022-07-06T12:54:31;5.30;;;2.70;;
3714;SDS011;1873;49.988;8.674;2022-07-06T12:57:15;3.23;;;2.50;;
3714;SDS011;1873;49.988;8.674;2022-07-06T13:00:00;4.87;;;2.33;;
3714;SDS011;1873;49.988;8.674;2022-07-06T14:20:41;4.73;;;2.60;;
3714;SDS011;1873;49.988;8.674;2022-07-06T14:27:01;3.80;;;2.57;;
3714;SDS011;1873;49.988;8.674;2022-07-06T14:30:09;4.23;;;3.17;;
3714;SDS011;1873;49.988;8.674;2022-07-06T14:32:39;4.03;;;3.00;;
3714;SDS011;1873;49.988;8.674;2022-07-06T14:35:24;5.37;;;3.07;;
3714;SDS011;1873;49.988;8.674;2022-07-06T14:37:54;3.50;;;2.70;;
3714;SDS011;1873;49.988;8.674;2022-07-06T14:40:23;4.07;;;2.47;;
3714;SDS011;1873;49.988;8.674;2022-07-06T14:42:51;4.80;;;3.10;;
3714;SDS011;1873;49.988;8.674;2022-07-06T14:45:20;2.97;;;2.67;;
3714;SDS011;1873;49.988;8.674;2022-07-06T14:47:50;3.17;;;2.53;;
3714;SDS011;1873;49.988;8.674;2022-07-06T14:50:18;3.37;;;2.97;;
3714;SDS011;1873;49.988;8.674;2022-07-06T14:52:49;3.80;;;2.83;;
3714;SDS011;1873;49.988;8.674;2022-07-06T14:55:19;4.57;;;2.87;;
3714;SDS011;1873;49.988;8.674;2022-07-06T14:57:51;3.33;;;3.03;;
3714;SDS011;1873;49.988;8.674;2022-07-06T15:00:21;3.10;;;2.83;;
3714;SDS011;1873;49.988;8.674;2022-07-06T15:02:49;3.93;;;2.67;;
3714;SDS011;1873;49.988;8.674;2022-07-06T15:05:30;8.90;;;3.00;;
3714;SDS011;1873;49.988;8.674;2022-07-06T15:08:01;3.30;;;3.00;;
3714;SDS011;1873;49.988;8.674;2022-07-06T15:21:44;5.23;;;3.43;;
3714;SDS011;1873;49.988;8.674;2022-07-06T15:28:00;4.33;;;3.93;;
3714;SDS011;1873;49.988;8.674;2022-07-06T15:31:45;5.70;;;3.90;;
3714;SDS011;1873;49.988;8.674;2022-07-06T15:50:56;6.40;;;3.30;;
3714;SDS011;1873;49.988;8.674;2022-07-06T15:53:27;4.30;;;3.30;;
3714;SDS011;1873;49.988;8.674;2022-07-06T15:56:34;5.20;;;3.13;;
3714;SDS011;1873;49.988;8.674;2022-07-06T15:59:06;5.07;;;2.77;;
3714;SDS011;1873;49.988;8.674;2022-07-06T16:01:36;3.10;;;2.40;;
3714;SDS011;1873;49.988;8.674;2022-07-06T16:04:20;2.27;;;1.93;;
3714;SDS011;1873;49.988;8.674;2022-07-06T16:06:55;4.73;;;2.50;;
3714;SDS011;1873;49.988;8.674;2022-07-06T16:09:49;4.07;;;2.17;;
3714;SDS011;1873;49.988;8.674;2022-07-06T16:12:18;5.00;;;2.90;;
3714;SDS011;1873;49.988;8.674;2022-07-06T16:14:55;3.37;;;2.57;;
3714;SDS011;1873;49.988;8.674;2022-07-06T16:17:27;5.40;;;3.00;;
3714;SDS011;1873;49.988;8.674;2022-07-06T16:19:56;6.07;;;2.50;;
3714;SDS011;1873;49.988;8.674;2022-07-06T16:22:36;3.37;;;2.87;;
3714;SDS011;1873;49.988;8.674;2022-07-06T16:25:05;2.90;;;2.37;;
3714;SDS011;1873;49.988;8.674;2022-07-06T17:21:03;2.50;;;2.23;;
3714;SDS011;1873;49.988;8.674;2022-07-06T17:46:22;8.43;;;3.00;;
3714;SDS011;1873;49.988;8.674;2022-07-06T17:53:03;3.27;;;2.70;;
3714;SDS011;1873;49.988;8.674;2022-07-06T18:02:31;5.30;;;2.80;;
3714;SDS011;1873;49.988;8.674;2022-07-06T18:05:03;3.90;;;2.87;;
3714;SDS011;1873;49.988;8.674;2022-07-06T18:07:32;3.60;;;2.80;;
3714;SDS011;1873;49.988;8.674;2022-07-06T18:10:01;3.20;;;2.90;;
3714;SDS011;1873;49.988;8.674;2022-07-06T18:12:33;4.40;;;2.57;;
3714;SDS011;1873;49.988;8.674;2022-07-06T18:15:02;3.97;;;2.83;;
3714;SDS011;1873;49.988;8.674;2022-07-06T18:17:33;3.03;;;2.70;;
3714;SDS011;1873;49.988;8.674;2022-07-06T18:20:04;4.87;;;3.10;;
3714;SDS011;1873;49.988;8.674;2022-07-06T18:22:34;4.10;;;3.07;;
3714;SDS011;1873;49.988;8.674;2022-07-06T18:25:03;3.90;;;3.30;;
3714;SDS011;1873;49.988;8.674;2022-07-06T18:27:34;3.30;;;3.00;;
3714;SDS011;1873;49.988;8.674;2022-07-06T18:30:03;3.10;;;2.53;;
3714;SDS011;1873;49.988;8.674;2022-07-06T18:32:37;2.77;;;2.47;;
3714;SDS011;1873;49.988;8.674;2022-07-06T18:35:16;4.50;;;3.00;;
3714;SDS011;1873;49.988;8.674;2022-07-06T18:37:48;3.87;;;3.20;;
3714;SDS011;1873;49.988;8.674;2022-07-06T18:40:17;7.43;;;2.80;;
3714;SDS011;1873;49.988;8.674;2022-07-06T18:42:48;7.23;;;2.70;;
3714;SDS011;1873;49.988;8.674;2022-07-06T18:45:19;3.17;;;2.67;;
3714;SDS011;1873;49.988;8.674;2022-07-06T18:47:48;3.60;;;2.80;;
3714;SDS011;1873;49.988;8.674;2022-07-06T18:50:20;4.87;;;2.90;;
3714;SDS011;1873;49.988;8.674;2022-07-06T18:52:49;3.13;;;2.70;;
3714;SDS011;1873;49.988;8.674;2022-07-06T18:55:20;5.50;;;2.70;;
3714;SDS011;1873;49.988;8.674;2022-07-06T19:00:57;4.37;;;2.70;;
3714;SDS011;1873;49.988;8.674;2022-07-06T19:03:28;3.43;;;2.50;;
3714;SDS011;1873;49.988;8.674;2022-07-06T19:05:56;3.27;;;2.70;;
3714;SDS011;1873;49.988;8.674;2022-07-06T19:08:24;5.03;;;2.67;;
3714;SDS011;1873;49.988;8.674;2022-07-06T19:10:52;4.43;;;2.77;;
3714;SDS011;1873;49.988;8.674;2022-07-06T19:13:21;2.80;;;2.47;;
3714;SDS011;1873;49.988;8.674;2022-07-06T19:15:51;3.30;;;2.80;;
3714;SDS011;1873;49.988;8.674;2022-07-06T19:18:20;3.80;;;2.30;;
3714;SDS011;1873;49.988;8.674;2022-07-06T19:20:54;2.63;;;2.33;;
3714;SDS011;1873;49.988;8.674;2022-07-06T19:23:22;5.20;;;2.77;;
3714;SDS011;1873;49.988;8.674;2022-07-06T19:25:55;6.40;;;2.80;;
3714;SDS011;1873;49.988;8.674;2022-07-06T19:28:24;2.67;;;2.47;;
3714;SDS011;1873;49.988;8.674;2022-07-06T19:31:08;3.40;;;2.27;;
3714;SDS011;1873;49.988;8.674;2022-07-06T19:33:38;3.20;;;2.60;;
3714;SDS011;1873;49.988;8.674;2022-07-06T19:36:07;3.23;;;2.30;;
3714;SDS011;1873;49.988;8.674;2022-07-06T19:38:37;3.33;;;2.40;;
3714;SDS011;1873;49.988;8.674;2022-07-06T19:41:06;3.43;;;2.30;;
3714;SDS011;1873;49.988;8.674;2022-07-06T19:43:35;5.43;;;3.00;;
3714;SDS011;1873;49.988;8.674;2022-07-06T19:46:04;3.30;;;2.13;;
3714;SDS011;1873;49.988;8.674;2022-07-06T19:48:38;2.77;;;2.47;;
3714;SDS011;1873;49.988;8.674;2022-07-06T19:51:12;6.63;;;2.50;;
3714;SDS011;1873;49.988;8.674;2022-07-06T19:56:52;18.03;;;12.30;;
3714;SDS011;1873;49.988;8.674;2022-07-06T20:00:02;6.00;;;2.33;;
3714;SDS011;1873;49.988;8.674;2022-07-06T20:02:32;4.07;;;2.40;;
3714;SDS011;1873;49.988;8.674;2022-07-06T20:05:03;3.97;;;2.67;;
3714;SDS011;1873;49.988;8.674;2022-07-06T20:11:05;2.60;;;1.63;;
3714;SDS011;1873;49.988;8.674;2022-07-06T20:13:34;2.73;;;2.00;;
3714;SDS011;1873;49.988;8.674;2022-07-06T20:16:03;5.10;;;2.30;;
3714;SDS011;1873;49.988;8.674;2022-07-06T20:18:32;3.00;;;2.17;;
3714;SDS011;1873;49.988;8.674;2022-07-06T20:21:02;5.20;;;2.10;;
3714;SDS011;1873;49.988;8.674;2022-07-06T20:23:30;2.80;;;2.10;;
3714;SDS011;1873;49.988;8.674;2022-07-06T20:25:59;3.53;;;1.90;;
3714;SDS011;1873;49.988;8.674;2022-07-06T20:28:28;2.73;;;2.00;;
3714;SDS011;1873;49.988;8.674;2022-07-06T20:30:59;3.30;;;2.10;;
3714;SDS011;1873;49.988;8.674;2022-07-06T20:33:28;3.33;;;2.40;;
3714;SDS011;1873;49.988;8.674;2022-07-06T20:35:56;3.90;;;2.10;;
3714;SDS011;1873;49.988;8.674;2022-07-06T20:38:27;2.80;;;2.23;;
3714;SDS011;1873;49.988;8.674;2022-07-06T20:40:56;5.57;;;2.53;;
3714;SDS011;1873;49.988;8.674;2022-07-06T20:43:24;4.10;;;2.13;;
3714;SDS011;1873;49.988;8.674;2022-07-06T20:45:53;4.43;;;2.70;;
3714;SDS011;1873;49.988;8.674;2022-07-06T20:48:21;5.20;;;3.70;;
3714;SDS011;1873;49.988;8.674;2022-07-06T20:50:50;12.60;;;9.20;;
3714;SDS011;1873;49.988;8.674;2022-07-06T20:53:18;17.37;;;11.37;;
3714;SDS011;1873;49.988;8.674;2022-07-06T20:55:49;24.20;;;15.80;;
3714;SDS011;1873;49.988;8.674;2022-07-06T20:58:20;18.30;;;12.83;;
3714;SDS011;1873;49.988;8.674;2022-07-06T21:00:48;12.70;;;9.67;;
3714;SDS011;1873;49.988;8.674;2022-07-06T21:03:17;12.17;;;8.33;;
3714;SDS011;1873;49.988;8.674;2022-07-06T21:05:45;12.70;;;8.43;;
3714;SDS011;1873;49.988;8.674;2022-07-06T21:08:14;11.70;;;7.13;;
3714;SDS011;1873;49.988;8.674;2022-07-06T21:10:43;11.67;;;7.43;;
3714;SDS011;1873;49.988;8.674;2022-07-06T21:13:13;8.97;;;6.23;;
3714;SDS011;1873;49.988;8.674;2022-07-06T21:15:42;8.30;;;7.07;;
3714;SDS011;1873;49.988;8.674;2022-07-06T21:18:10;7.77;;;6.40;;
3714;SDS011;1873;49.988;8.674;2022-07-06T21:20:39;9.73;;;6.77;;
3714;SDS011;1873;49.988;8.674;2022-07-06T21:23:09;9.60;;;6.67;;
3714;SDS011;1873;49.988;8.674;2022-07-06T21:25:37;8.20;;;5.27;;
3714;SDS011;1873;49.988;8.674;2022-07-06T21:28:06;13.70;;;6.33;;
3714;SDS011;1873;49.988;8.674;2022-07-06T21:30:36;9.90;;;6.00;;
3714;SDS011;1873;49.988;8.674;2022-07-06T21:33:04;14.77;;;8.17;;
3714;SDS011;1873;49.988;8.674;2022-07-06T21:35:33;18.03;;;7.10;;
3714;SDS011;1873;49.988;8.674;2022-07-06T21:38:02;10.70;;;6.67;;
3714;SDS011;1873;49.988;8.674;2022-07-06T21:40:30;10.73;;;6.07;;
3714;SDS011;1873;49.988;8.674;2022-07-06T21:42:58;11.40;;;5.90;;
3714;SDS011;1873;49.988;8.674;2022-07-06T21:45:28;10.57;;;5.07;;
3714;SDS011;1873;49.988;8.674;2022-07-06T21:47:58;6.90;;;4.20;;
3714;SDS011;1873;49.988;8.674;2022-07-06T21:50:27;7.87;;;4.47;;
3714;SDS011;1873;49.988;8.674;2022-07-06T21:52:56;7.10;;;4.37;;
3714;SDS011;1873;49.988;8.674;2022-07-06T21:55:24;5.87;;;3.17;;
3714;SDS011;1873;49.988;8.674;2022-07-06T21:57:53;6.37;;;3.10;;
3714;SDS011;1873;49.988;8.674;2022-07-06T22:00:26;7.83;;;3.50;;
3714;SDS011;1873;49.988;8.674;2022-07-06T22:02:55;4.70;;;2.67;;
3714;SDS011;1873;49.988;8.674;2022-07-06T22:05:25;4.23;;;2.67;;
3714;SDS011;1873;49.988;8.674;2022-07-06T22:07:54;5.90;;;4.23;;
3714;SDS011;1873;49.988;8.674;2022-07-06T22:10:22;6.70;;;4.07;;
3714;SDS011;1873;49.988;8.674;2022-07-06T22:12:52;7.17;;;4.10;;
3714;SDS011;1873;49.988;8.674;2022-07-06T22:15:21;5.50;;;3.57;;
3714;SDS011;1873;49.988;8.674;2022-07-06T22:17:51;5.00;;;3.37;;
3714;SDS011;1873;49.988;8.674;2022-07-06T22:20:20;10.50;;;3.90;;
3714;SDS011;1873;49.988;8.674;2022-07-06T22:22:51;7.50;;;3.27;;
3714;SDS011;1873;49.988;8.674;2022-07-06T22:25:19;5.33;;;3.10;;
3714;SDS011;1873;49.988;8.674;2022-07-06T22:27:48;7.33;;;3.00;;
3714;SDS011;1873;49.988;8.674;2022-07-06T22:30:16;5.83;;;2.43;;
3714;SDS011;1873;49.988;8.674;2022-07-06T22:32:45;4.10;;;2.80;;
3714;SDS011;1873;49.988;8.674;2022-07-06T22:35:13;3.40;;;2.97;;
3714;SDS011;1873;49.988;8.674;2022-07-06T22:37:42;4.23;;;2.70;;
3714;SDS011;1873;49.988;8.674;2022-07-06T22:40:13;4.40;;;2.93;;
3714;SDS011;1873;49.988;8.674;2022-07-06T22:42:59;2.80;;;2.30;;
3714;SDS011;1873;49.988;8.674;2022-07-06T22:45:27;4.60;;;2.73;;
3714;SDS011;1873;49.988;8.674;2022-07-06T22:47:56;3.70;;;2.70;;
3714;SDS011;1873;49.988;8.674;2022-07-06T22:50:24;4.70;;;2.63;;
3714;SDS011;1873;49.988;8.674;2022-07-06T22:52:53;2.73;;;2.43;;
3714;SDS011;1873;49.988;8.674;2022-07-06T22:55:23;4.83;;;2.60;;
3714;SDS011;1873;49.988;8.674;2022-07-06T22:57:52;3.53;;;2.50;;
3714;SDS011;1873;49.988;8.674;2022-07-06T23:00:22;3.47;;;2.57;;
3714;SDS011;1873;49.988;8.674;2022-07-06T23:02:50;3.80;;;2.80;;
3714;SDS011;1873;49.988;8.674;2022-07-06T23:05:19;5.07;;;2.27;;
3714;SDS011;1873;49.988;8.674;2022-07-06T23:07:47;3.80;;;2.30;;
3714;SDS011;1873;49.988;8.674;2022-07-06T23:10:16;3.47;;;2.70;;
3714;SDS011;1873;49.988;8.674;2022-07-06T23:12:46;2.93;;;2.30;;
3714;SDS011;1873;49.988;8.674;2022-07-06T23:15:15;3.67;;;2.83;;
3714;SDS011;1873;49.988;8.674;2022-07-06T23:17:43;4.87;;;2.50;;
3714;SDS011;1873;49.988;8.674;2022-07-06T23:20:12;3.03;;;1.83;;
3714;SDS011;1873;49.988;8.674;2022-07-06T23:22:41;3.57;;;2.73;;
3714;SDS011;1873;49.988;8.674;2022-07-06T23:25:10;4.70;;;2.53;;
3714;SDS011;1873;49.988;8.674;2022-07-06T23:27:43;5.70;;;2.53;;
3714;SDS011;1873;49.988;8.674;2022-07-06T23:30:14;3.93;;;2.70;;
3714;SDS011;1873;49.988;8.674;2022-07-06T23:32:42;5.00;;;2.60;;
3714;SDS011;1873;49.988;8.674;2022-07-06T23:35:11;3.13;;;2.60;;
3714;SDS011;1873;49.988;8.674;2022-07-06T23:37:41;8.23;;;2.60;;
3714;SDS011;1873;49.988;8.674;2022-07-06T23:40:11;5.43;;;2.33;;
3714;SDS011;1873;49.988;8.674;2022-07-06T23:42:40;5.57;;;3.40;;
3714;SDS011;1873;49.988;8.674;2022-07-06T23:45:10;3.87;;;2.67;;
3714;SDS011;1873;49.988;8.674;2022-07-06T23:47:39;3.60;;;2.50;;
3714;SDS011;1873;49.988;8.674;2022-07-06T23:50:08;3.50;;;2.70;;
3714;SDS011;1873;49.988;8.674;2022-07-06T23:52:37;4.40;;;2.43;;
3714;SDS011;1873;49.988;8.674;2022-07-06T23:55:11;4.63;;;2.70;;
3714;SDS011;1873;49.988;8.674;2022-07-06T23:57:39;5.67;;;2.60;;
